Time;durP1;ratioP1;P1;durP2;ratioP2;P2;SDS_P1;SDS_P2;PMS_P1;PMS_P2;Temp;Humidity;BMP_temperature;BMP_pressure;BME280_temperature;BME280_humidity;BME280_pressure;Samples;Min_cycle;Max_cycle;Signal;HPM_P1;HPM_P2
2022/08/29 00:00:37;;;;;;;11.53;5.33;;;16.70;1.00;;;;;;4991763;28;20459;-87
2022/08/29 00:03:06;;;;;;;10.83;4.97;;;16.70;1.00;;;;;;4990089;28;20455;-84
2022/08/29 00:05:35;;;;;;;8.43;4.57;;;16.70;1.00;;;;;;4987480;28;20507;-86
2022/08/29 00:08:03;;;;;;;9.00;4.40;;;16.60;1.00;;;;;;4987456;28;20458;-83
2022/08/29 00:10:32;;;;;;;9.17;4.37;;;16.60;1.00;;;;;;4983911;28;20570;-86
2022/08/29 00:13:01;;;;;;;10.47;4.73;;;16.60;1.00;;;;;;4986309;28;20520;-85
2022/08/29 00:15:30;;;;;;;10.80;4.43;;;16.60;1.00;;;;;;4984988;28;20604;-85
2022/08/29 00:17:57;;;;;;;8.87;3.93;;;16.60;1.00;;;;;;4984016;28;20458;-85
2022/08/29 00:20:32;;;;;;;10.67;4.77;;;16.50;1.00;;;;;;4987655;28;20498;-86
2022/08/29 00:22:59;;;;;;;10.23;4.93;;;16.50;1.00;;;;;;4983541;28;20882;-86
2022/08/29 00:25:28;;;;;;;11.10;4.50;;;16.50;1.00;;;;;;4984904;28;20483;-86
2022/08/29 00:27:55;;;;;;;18.90;4.83;;;16.50;1.00;;;;;;4987513;28;20462;-86
2022/08/29 00:30:24;;;;;;;8.97;4.50;;;16.40;1.00;;;;;;4984493;28;20419;-86
2022/08/29 00:32:52;;;;;;;8.77;3.97;;;16.40;1.00;;;;;;4984959;28;21227;-86
2022/08/29 00:35:21;;;;;;;8.37;4.40;;;16.40;1.00;;;;;;4986832;28;20469;-84
2022/08/29 00:37:50;;;;;;;8.03;3.90;;;16.40;1.00;;;;;;4986886;28;20543;-86
2022/08/29 00:40:20;;;;;;;8.40;4.57;;;16.30;1.00;;;;;;4989324;28;20478;-86
2022/08/29 00:42:47;;;;;;;9.07;4.07;;;16.30;1.00;;;;;;4987727;28;22032;-86
2022/08/29 00:45:18;;;;;;;8.17;4.50;;;16.30;1.00;;;;;;4991122;28;21570;-84
2022/08/29 00:47:49;;;;;;;10.97;4.60;;;16.20;1.00;;;;;;4985925;28;20473;-85
2022/08/29 00:50:23;;;;;;;8.27;4.57;;;16.20;1.00;;;;;;5003271;28;20466;-85
2022/08/29 00:52:55;;;;;;;10.50;5.17;;;16.20;1.00;;;;;;4994101;28;20424;-86
2022/08/29 00:55:26;;;;;;;8.73;4.20;;;16.20;1.00;;;;;;5002102;28;21044;-87
2022/08/29 00:57:58;;;;;;;12.73;4.53;;;16.20;1.00;;;;;;4997667;28;20449;-85
2022/08/29 01:00:26;;;;;;;10.10;4.27;;;16.10;1.00;;;;;;5004435;28;20431;-87
2022/08/29 01:02:55;;;;;;;8.77;4.27;;;16.10;1.00;;;;;;4998584;28;20470;-85
2022/08/29 01:05:24;;;;;;;9.07;4.43;;;16.20;1.00;;;;;;5002722;28;20480;-85
2022/08/29 01:07:54;;;;;;;7.10;4.00;;;16.10;1.00;;;;;;4994647;28;20491;-86
2022/08/29 01:13:10;;;;;;;9.00;4.17;;;16.10;1.00;;;;;;4997697;28;20485;-85
2022/08/29 01:15:40;;;;;;;11.23;4.37;;;16.10;1.00;;;;;;4998791;28;20474;-87
2022/08/29 01:18:10;;;;;;;13.33;5.17;;;16.10;1.00;;;;;;4991346;28;20457;-87
2022/08/29 01:20:50;;;;;;;11.93;4.70;;;16.10;1.00;;;;;;4994637;28;20446;-86
2022/08/29 01:23:24;;;;;;;10.00;4.40;;;16.00;1.00;;;;;;5001874;28;20463;-84
2022/08/29 01:25:59;;;;;;;9.90;4.40;;;16.00;1.00;;;;;;5003344;28;20465;-85
2022/08/29 01:28:34;;;;;;;8.13;4.40;;;16.00;1.00;;;;;;5001481;28;20458;-86
2022/08/29 01:31:12;;;;;;;8.50;4.87;;;15.90;1.00;;;;;;5002178;28;20441;-86
2022/08/29 01:33:43;;;;;;;7.87;4.83;;;15.90;1.00;;;;;;5000683;28;20496;-85
2022/08/29 01:36:12;;;;;;;10.93;4.97;;;15.90;1.00;;;;;;5004470;28;20439;-86
2022/08/29 01:38:42;;;;;;;8.53;4.47;;;15.90;1.00;;;;;;5001337;28;21371;-86
2022/08/29 01:41:13;;;;;;;8.97;4.00;;;15.90;1.00;;;;;;4996240;28;20465;-85
2022/08/29 01:43:42;;;;;;;8.73;4.40;;;15.90;1.00;;;;;;4993659;28;20473;-86
2022/08/29 01:46:10;;;;;;;9.93;4.77;;;15.80;1.00;;;;;;4993633;28;20467;-86
2022/08/29 01:48:40;;;;;;;11.43;4.30;;;15.80;1.00;;;;;;4991792;28;20553;-86
2022/08/29 01:51:07;;;;;;;10.67;4.80;;;15.80;1.00;;;;;;4996927;28;21010;-86
2022/08/29 01:53:34;;;;;;;9.30;4.70;;;15.80;1.00;;;;;;4992487;28;20554;-86
2022/08/29 01:56:12;;;;;;;8.43;4.50;;;15.80;1.00;;;;;;4995012;28;20519;-86
2022/08/29 01:58:39;;;;;;;9.77;4.90;;;15.80;1.00;;;;;;4994528;28;20604;-88
2022/08/29 02:01:07;;;;;;;7.23;4.20;;;15.70;1.00;;;;;;4993352;28;21233;-86
2022/08/29 02:03:34;;;;;;;9.27;4.67;;;15.70;1.00;;;;;;4990031;28;20452;-85
2022/08/29 02:06:01;;;;;;;9.17;4.57;;;15.70;1.00;;;;;;4993725;28;21087;-85
2022/08/29 02:08:28;;;;;;;7.63;4.10;;;15.70;1.00;;;;;;4991545;28;20522;-85
2022/08/29 02:10:57;;;;;;;10.67;5.00;;;15.60;1.00;;;;;;4990243;28;20481;-85
2022/08/29 02:13:25;;;;;;;8.07;4.20;;;15.70;1.00;;;;;;4989126;28;20526;-86
2022/08/29 02:15:52;;;;;;;11.97;4.90;;;15.60;1.00;;;;;;4989308;28;20467;-86
2022/08/29 02:18:20;;;;;;;8.10;4.60;;;15.60;1.00;;;;;;4993883;28;20502;-87
2022/08/29 02:20:47;;;;;;;8.10;4.03;;;15.60;1.00;;;;;;4994899;28;20479;-86
2022/08/29 02:23:14;;;;;;;8.90;5.13;;;15.60;1.00;;;;;;4993324;28;20897;-87
2022/08/29 02:25:41;;;;;;;8.73;5.47;;;15.60;1.00;;;;;;4992399;28;20462;-86
2022/08/29 02:28:08;;;;;;;7.70;5.17;;;15.50;1.00;;;;;;4995481;28;20435;-86
2022/08/29 02:30:36;;;;;;;12.20;5.07;;;15.50;1.00;;;;;;4991034;28;20428;-88
2022/08/29 02:33:03;;;;;;;8.10;4.13;;;15.50;1.00;;;;;;4997153;28;20459;-86
2022/08/29 02:35:37;;;;;;;8.93;4.67;;;15.40;1.00;;;;;;4992133;28;20509;-87
2022/08/29 02:38:05;;;;;;;7.90;4.40;;;15.50;1.00;;;;;;4998266;28;21242;-86
2022/08/29 02:40:35;;;;;;;16.03;5.47;;;15.40;1.00;;;;;;4990450;28;20459;-85
2022/08/29 02:43:03;;;;;;;8.83;4.73;;;15.40;1.00;;;;;;4994384;28;20918;-87
2022/08/29 02:45:33;;;;;;;9.60;4.93;;;15.40;1.00;;;;;;4991762;28;20475;-85
2022/08/29 02:48:01;;;;;;;8.13;4.77;;;15.30;1.00;;;;;;4994612;28;21075;-86
2022/08/29 02:50:29;;;;;;;9.13;5.37;;;15.30;1.00;;;;;;4991374;28;20499;-87
2022/08/29 02:52:57;;;;;;;12.73;6.10;;;15.30;1.00;;;;;;4990160;28;20567;-85
2022/08/29 02:55:24;;;;;;;13.00;5.60;;;15.30;1.00;;;;;;4992949;28;20483;-85
2022/08/29 02:57:54;;;;;;;10.40;5.00;;;15.30;1.00;;;;;;4994428;28;20443;-86
2022/08/29 03:00:25;;;;;;;11.03;5.50;;;15.20;1.00;;;;;;4993401;28;20463;-85
2022/08/29 03:02:54;;;;;;;8.37;5.10;;;15.20;1.00;;;;;;4992545;28;20463;-86
2022/08/29 03:05:26;;;;;;;11.30;5.30;;;15.20;1.00;;;;;;4991470;28;20546;-84
2022/08/29 03:07:53;;;;;;;11.30;5.43;;;15.20;1.00;;;;;;4999527;28;20405;-83
2022/08/29 03:10:20;;;;;;;8.10;4.90;;;15.20;1.00;;;;;;5445056;23;20478;-86
2022/08/29 03:12:47;;;;;;;8.03;4.90;;;15.20;1.00;;;;;;4998487;28;20479;-86
2022/08/29 03:15:15;;;;;;;9.97;5.30;;;15.10;1.00;;;;;;4995202;28;20446;-86
2022/08/29 03:17:42;;;;;;;10.30;5.27;;;15.10;1.00;;;;;;4995227;28;20459;-86
2022/08/29 03:20:13;;;;;;;8.03;4.83;;;15.10;1.00;;;;;;4992193;28;20556;-86
2022/08/29 03:22:42;;;;;;;9.63;5.00;;;15.10;1.00;;;;;;4995059;28;20430;-87
2022/08/29 03:25:13;;;;;;;7.63;4.90;;;15.10;1.00;;;;;;4990321;28;20538;-86
2022/08/29 03:27:41;;;;;;;11.67;6.07;;;15.00;1.00;;;;;;4997957;28;20471;-85
2022/08/29 03:30:10;;;;;;;11.17;5.40;;;15.00;1.00;;;;;;5002761;28;21397;-86
2022/08/29 03:32:38;;;;;;;16.70;6.43;;;15.00;1.00;;;;;;4998121;28;20566;-85
2022/08/29 03:35:06;;;;;;;11.87;5.70;;;15.00;1.00;;;;;;4998377;28;21299;-85
2022/08/29 03:37:35;;;;;;;11.17;5.47;;;15.00;1.00;;;;;;5005674;28;20483;-87
2022/08/29 03:40:06;;;;;;;9.50;5.03;;;14.90;1.00;;;;;;4990298;28;20470;-88
2022/08/29 03:42:36;;;;;;;11.63;6.07;;;14.90;1.00;;;;;;5001931;28;20451;-85
2022/08/29 03:45:04;;;;;;;10.63;5.63;;;14.90;1.00;;;;;;5001628;28;20487;-86
2022/08/29 03:47:35;;;;;;;11.47;5.73;;;14.90;1.00;;;;;;5000716;28;21020;-85
2022/08/29 03:50:04;;;;;;;9.70;5.10;;;14.90;1.00;;;;;;5002137;28;20896;-85
2022/08/29 03:52:33;;;;;;;10.10;4.80;;;14.80;1.00;;;;;;5002689;28;20471;-86
2022/08/29 03:55:00;;;;;;;10.57;5.90;;;14.80;1.00;;;;;;4997894;28;20538;-85
2022/08/29 03:57:33;;;;;;;10.30;5.70;;;14.70;1.00;;;;;;4993908;28;20497;-85
2022/08/29 04:00:01;;;;;;;9.70;5.43;;;14.70;1.00;;;;;;5001159;28;20495;-85
2022/08/29 04:02:35;;;;;;;8.47;4.90;;;14.70;1.00;;;;;;4997574;28;20493;-87
2022/08/29 04:05:13;;;;;;;12.80;5.30;;;14.60;1.00;;;;;;4998142;28;21278;-86
2022/08/29 04:07:44;;;;;;;9.70;4.70;;;14.60;1.00;;;;;;4994256;28;20426;-86
2022/08/29 04:10:15;;;;;;;10.83;5.07;;;14.60;1.00;;;;;;4996984;28;20506;-86
2022/08/29 04:12:43;;;;;;;8.50;5.47;;;14.70;1.00;;;;;;4999096;28;20534;-86
2022/08/29 04:15:11;;;;;;;10.70;6.10;;;14.60;1.00;;;;;;4993351;28;20579;-86
2022/08/29 04:17:38;;;;;;;9.87;5.77;;;14.60;1.00;;;;;;4991355;28;20470;-86
2022/08/29 04:20:06;;;;;;;15.17;7.47;;;14.60;1.00;;;;;;4993383;28;20610;-84
2022/08/29 04:22:35;;;;;;;9.27;5.43;;;14.60;1.00;;;;;;4994100;28;20488;-84
2022/08/29 04:25:02;;;;;;;10.37;7.20;;;14.60;1.00;;;;;;4999856;28;21098;-86
2022/08/29 04:27:29;;;;;;;11.80;5.30;;;14.60;1.00;;;;;;5002153;28;20459;-86
2022/08/29 04:29:57;;;;;;;11.63;5.70;;;14.60;1.00;;;;;;5001554;28;20431;-87
2022/08/29 04:32:24;;;;;;;10.60;5.20;;;14.60;1.00;;;;;;5006349;28;20470;-85
2022/08/29 04:34:55;;;;;;;17.07;13.10;;;14.60;1.00;;;;;;4996117;28;20466;-85
2022/08/29 04:37:21;;;;;;;8.47;5.73;;;14.60;1.00;;;;;;5000983;28;20455;-83
2022/08/29 04:39:48;;;;;;;9.70;6.03;;;14.70;1.00;;;;;;5001530;28;20459;-84
2022/08/29 04:42:16;;;;;;;11.57;5.77;;;14.70;1.00;;;;;;5003380;28;20546;-85
2022/08/29 04:44:44;;;;;;;11.50;6.33;;;14.80;1.00;;;;;;4982601;28;20503;-85
2022/08/29 04:47:15;;;;;;;9.47;5.37;;;14.90;1.00;;;;;;5002449;28;20434;-85
2022/08/29 04:49:42;;;;;;;9.70;5.23;;;15.00;1.00;;;;;;4996858;28;20933;-81
2022/08/29 04:52:09;;;;;;;10.30;5.23;;;15.10;1.00;;;;;;4997573;28;20462;-84
2022/08/29 04:54:36;;;;;;;10.87;6.60;;;15.10;1.00;;;;;;4999157;28;20482;-85
2022/08/29 04:57:04;;;;;;;10.90;5.40;;;15.20;1.00;;;;;;4999880;28;20410;-83
2022/08/29 04:59:34;;;;;;;10.07;5.30;;;15.30;1.00;;;;;;4998692;28;20467;-83
2022/08/29 05:02:01;;;;;;;10.53;5.70;;;15.40;1.00;;;;;;4999472;28;20505;-86
2022/08/29 05:04:29;;;;;;;11.23;6.27;;;15.40;1.00;;;;;;4997368;28;21311;-84
2022/08/29 05:06:56;;;;;;;10.40;6.30;;;15.40;1.00;;;;;;4994472;28;20431;-85
2022/08/29 05:09:23;;;;;;;10.47;6.43;;;15.40;1.00;;;;;;4996323;28;20437;-83
2022/08/29 05:11:49;;;;;;;8.37;5.60;;;15.40;1.00;;;;;;4968795;28;20579;-83
2022/08/29 05:14:16;;;;;;;12.10;7.50;;;15.40;1.00;;;;;;4970953;28;20472;-83
2022/08/29 05:16:45;;;;;;;15.27;6.77;;;15.40;1.00;;;;;;4970593;28;20436;-83
2022/08/29 05:19:13;;;;;;;14.57;7.13;;;15.40;1.00;;;;;;4971295;28;20484;-84
2022/08/29 05:21:42;;;;;;;13.33;7.57;;;15.40;1.00;;;;;;4970743;28;20629;-85
2022/08/29 05:24:11;;;;;;;12.03;6.13;;;15.40;1.00;;;;;;4971818;28;20503;-85
2022/08/29 05:26:41;;;;;;;10.13;7.73;;;15.40;1.00;;;;;;4977231;28;20488;-83
2022/08/29 05:29:10;;;;;;;13.47;8.00;;;15.50;1.00;;;;;;4977190;28;20468;-85
2022/08/29 05:32:07;;;;;;;12.63;6.97;;;15.60;1.00;;;;;;4970498;28;20568;-85
2022/08/29 05:37:54;;;;;;;13.43;6.97;;;15.70;1.00;;;;;;4840437;29;20520;-85
2022/08/29 05:40:21;;;;;;;13.73;7.43;;;15.80;1.00;;;;;;4948592;28;20475;-83
2022/08/29 05:42:55;;;;;;;10.83;7.60;;;15.80;1.00;;;;;;4989777;28;20821;-83
2022/08/29 05:45:22;;;;;;;17.40;10.20;;;15.90;1.00;;;;;;4979892;28;20498;-83
2022/08/29 05:47:49;;;;;;;12.10;7.90;;;16.00;1.00;;;;;;4974290;28;21215;-73
2022/08/29 05:50:16;;;;;;;11.73;7.30;;;16.00;1.00;;;;;;4961137;28;20461;-75
2022/08/29 05:52:44;;;;;;;10.67;7.50;;;16.10;1.00;;;;;;4962267;28;20482;-76
2022/08/29 05:55:12;;;;;;;13.63;9.00;;;16.40;1.00;;;;;;4963705;28;22197;-74
2022/08/29 05:57:39;;;;;;;13.20;8.47;;;16.50;1.00;;;;;;4964939;28;20459;-74
2022/08/29 06:00:08;;;;;;;14.10;9.20;;;16.60;1.00;;;;;;4961708;28;20488;-76
2022/08/29 06:02:35;;;;;;;11.43;8.27;;;16.70;1.00;;;;;;4965051;28;20559;-79
2022/08/29 06:05:03;;;;;;;13.80;8.30;;;16.80;1.00;;;;;;4964957;28;20486;-77
2022/08/29 06:07:31;;;;;;;14.03;7.93;;;16.90;1.00;;;;;;4959910;28;20575;-75
2022/08/29 06:09:58;;;;;;;14.27;8.87;;;16.90;1.00;;;;;;4965862;28;20469;-77
2022/08/29 06:12:26;;;;;;;11.13;7.60;;;16.90;1.00;;;;;;4983295;28;20477;-74
2022/08/29 06:14:53;;;;;;;13.80;8.33;;;16.90;1.00;;;;;;4986638;28;20479;-75
2022/08/29 06:17:20;;;;;;;16.63;8.70;;;16.90;1.00;;;;;;4991703;28;20473;-76
2022/08/29 06:19:50;;;;;;;22.80;11.27;;;16.90;1.00;;;;;;4990930;28;20467;-77
2022/08/29 06:22:18;;;;;;;14.67;9.50;;;16.80;1.00;;;;;;4988267;28;20539;-74
2022/08/29 06:24:46;;;;;;;14.90;9.10;;;16.80;1.00;;;;;;4974442;28;20515;-74
2022/08/29 06:27:14;;;;;;;14.73;8.60;;;16.80;1.00;;;;;;4996082;28;20878;-74
2022/08/29 06:29:42;;;;;;;14.30;7.80;;;16.90;1.00;;;;;;4990712;28;20660;-74
2022/08/29 06:32:09;;;;;;;11.40;7.93;;;16.90;1.00;;;;;;4990957;28;20470;-73
2022/08/29 06:34:35;;;;;;;16.00;7.63;;;16.90;1.00;;;;;;4988248;28;20475;-75
2022/08/29 06:37:04;;;;;;;13.93;7.73;;;17.00;1.00;;;;;;4989244;28;20472;-76
2022/08/29 06:39:30;;;;;;;14.37;7.60;;;17.00;1.00;;;;;;4987556;28;20522;-74
2022/08/29 06:41:57;;;;;;;12.60;7.60;;;17.10;1.00;;;;;;4987045;28;20438;-76
2022/08/29 06:44:26;;;;;;;12.50;7.50;;;17.10;1.00;;;;;;4988339;28;20471;-79
2022/08/29 06:46:57;;;;;;;11.33;7.17;;;17.20;1.00;;;;;;4989912;28;20459;-78
2022/08/29 06:49:24;;;;;;;14.00;7.67;;;17.30;1.00;;;;;;4990113;28;20455;-78
2022/08/29 06:51:52;;;;;;;13.00;7.23;;;17.40;1.00;;;;;;4992324;28;20417;-79
2022/08/29 06:54:24;;;;;;;11.90;7.40;;;17.40;1.00;;;;;;4992918;28;20463;-80
2022/08/29 06:56:53;;;;;;;14.00;7.57;;;17.40;1.00;;;;;;4992222;28;20933;-80
2022/08/29 06:59:20;;;;;;;12.30;7.23;;;17.50;1.00;;;;;;4995629;28;21346;-80
2022/08/29 07:01:47;;;;;;;10.07;7.00;;;17.50;1.00;;;;;;4988005;28;20771;-80
2022/08/29 07:04:15;;;;;;;11.00;7.53;;;17.50;1.00;;;;;;4991714;28;20517;-80
2022/08/29 07:06:43;;;;;;;15.13;8.30;;;17.50;1.00;;;;;;4990086;28;20530;-81
2022/08/29 07:09:13;;;;;;;17.53;8.00;;;17.60;1.00;;;;;;4989036;28;20486;-80
2022/08/29 07:11:41;;;;;;;11.07;6.60;;;17.70;1.00;;;;;;4989059;28;20534;-78
2022/08/29 07:14:09;;;;;;;13.73;8.60;;;17.70;1.00;;;;;;4994461;28;20483;-78
2022/08/29 07:16:37;;;;;;;14.37;6.53;;;17.90;1.00;;;;;;4996981;28;20614;-78
2022/08/29 07:19:05;;;;;;;11.37;6.70;;;18.10;1.00;;;;;;4989934;28;20459;-79
2022/08/29 07:21:34;;;;;;;13.30;7.57;;;18.10;1.00;;;;;;4995122;28;21183;-80
2022/08/29 07:24:02;;;;;;;11.00;6.57;;;18.20;1.00;;;;;;4993954;28;20471;-80
2022/08/29 07:26:31;;;;;;;14.13;7.40;;;18.20;1.00;;;;;;4995237;28;20534;-81
2022/08/29 07:29:01;;;;;;;11.73;7.37;;;18.20;1.00;;;;;;4990771;28;20556;-81
2022/08/29 07:31:28;;;;;;;13.07;7.60;;;18.20;1.00;;;;;;4992256;28;20473;-81
2022/08/29 07:33:55;;;;;;;13.70;7.43;;;18.30;1.00;;;;;;4990947;28;20450;-81
2022/08/29 07:36:22;;;;;;;14.37;8.30;;;18.30;1.00;;;;;;4989796;28;21259;-82
2022/08/29 07:38:50;;;;;;;13.20;7.33;;;18.40;1.00;;;;;;4993581;28;20463;-80
2022/08/29 07:41:19;;;;;;;12.47;8.37;;;18.30;1.00;;;;;;4992162;28;20480;-80
2022/08/29 07:43:49;;;;;;;11.40;7.03;;;18.40;1.00;;;;;;4992222;28;20467;-80
2022/08/29 07:46:19;;;;;;;13.47;8.17;;;18.40;1.00;;;;;;4984989;28;20486;-80
2022/08/29 07:48:46;;;;;;;12.77;7.87;;;18.40;1.00;;;;;;4992235;28;20481;-80
2022/08/29 07:51:18;;;;;;;10.80;6.73;;;18.40;1.00;;;;;;4997093;28;20494;-81
2022/08/29 07:53:45;;;;;;;13.57;6.37;;;18.40;1.00;;;;;;4995686;28;20470;-80
2022/08/29 07:56:21;;;;;;;11.93;7.40;;;18.30;1.00;;;;;;4993445;28;21121;-80
2022/08/29 07:58:49;;;;;;;15.20;7.70;;;18.40;1.00;;;;;;4991707;28;20466;-80
2022/08/29 08:01:17;;;;;;;9.23;6.80;;;18.40;1.00;;;;;;4989015;28;20431;-80
2022/08/29 08:03:43;;;;;;;9.60;6.70;;;18.40;1.00;;;;;;4991203;28;20985;-80
2022/08/29 08:06:11;;;;;;;10.33;7.37;;;18.50;1.00;;;;;;4986220;28;20494;-80
2022/08/29 08:08:38;;;;;;;10.73;7.00;;;18.50;1.00;;;;;;4991116;28;21042;-82
2022/08/29 08:11:05;;;;;;;14.03;6.93;;;18.50;1.00;;;;;;4987377;28;21173;-80
2022/08/29 08:13:35;;;;;;;15.20;7.80;;;18.40;1.00;;;;;;4989385;28;20510;-81
2022/08/29 08:16:04;;;;;;;11.07;6.90;;;18.50;1.00;;;;;;4984961;28;20460;-79
2022/08/29 08:18:32;;;;;;;10.50;7.00;;;18.50;1.00;;;;;;4986145;28;20424;-80
2022/08/29 08:20:59;;;;;;;10.73;6.30;;;18.60;1.00;;;;;;4990298;28;20469;-79
2022/08/29 08:23:26;;;;;;;18.57;8.10;;;18.70;1.00;;;;;;4986830;28;20562;-79
2022/08/29 08:25:53;;;;;;;10.30;6.90;;;18.90;1.00;;;;;;4990557;28;20470;-81
2022/08/29 08:28:20;;;;;;;11.97;6.90;;;19.10;1.00;;;;;;4994526;28;20982;-81
2022/08/29 08:30:48;;;;;;;11.90;6.67;;;19.20;1.00;;;;;;4986823;28;20593;-81
2022/08/29 08:33:16;;;;;;;14.03;7.43;;;19.30;1.00;;;;;;4977101;28;20580;-81
2022/08/29 08:35:43;;;;;;;9.57;6.50;;;19.50;1.00;;;;;;4988596;28;20453;-82
2022/08/29 08:38:10;;;;;;;8.73;6.83;;;19.30;1.00;;;;;;4987815;28;20505;-81
2022/08/29 08:40:42;;;;;;;9.17;7.33;;;19.30;1.00;;;;;;4996567;28;20916;-81
2022/08/29 08:43:13;;;;;;;11.60;7.00;;;19.20;1.00;;;;;;4989494;28;20554;-82
2022/08/29 08:45:41;;;;;;;9.10;6.13;;;19.20;1.00;;;;;;4991905;28;20847;-82
2022/08/29 08:48:15;;;;;;;11.27;7.60;;;19.20;1.00;;;;;;4993781;28;20845;-82
2022/08/29 08:50:47;;;;;;;13.33;8.50;;;19.10;1.00;;;;;;4993165;28;20493;-81
2022/08/29 08:53:19;;;;;;;10.27;6.57;;;19.10;1.00;;;;;;4984624;28;20479;-80
2022/08/29 08:55:49;;;;;;;12.97;6.80;;;19.30;1.00;;;;;;4985386;28;20487;-80
2022/08/29 08:58:25;;;;;;;10.40;6.93;;;19.30;1.00;;;;;;4987545;28;20535;-82
2022/08/29 09:00:57;;;;;;;11.50;7.43;;;19.50;1.00;;;;;;4983533;28;20467;-82
2022/08/29 09:03:59;;;;;;;11.77;7.07;;;19.70;1.00;;;;;;4994513;28;20493;-81
2022/08/29 09:06:43;;;;;;;11.07;6.40;;;19.90;1.00;;;;;;4997380;28;20498;-81
2022/08/29 09:09:27;;;;;;;10.73;7.00;;;20.10;1.00;;;;;;4990173;28;20857;-81
2022/08/29 09:12:06;;;;;;;12.37;7.13;;;20.10;1.00;;;;;;4997024;28;20445;-83
2022/08/29 09:14:47;;;;;;;11.00;7.10;;;20.30;1.00;;;;;;4996590;28;20486;-83
2022/08/29 09:17:21;;;;;;;10.00;7.00;;;20.60;1.00;;;;;;4992483;28;22059;-82
2022/08/29 09:19:56;;;;;;;13.43;11.97;;;21.00;1.00;;;;;;4997955;28;20968;-81
2022/08/29 09:22:28;;;;;;;15.73;12.27;;;21.20;1.00;;;;;;5002668;28;20569;-82
2022/08/29 09:25:00;;;;;;;9.60;6.20;;;21.40;1.00;;;;;;4996828;28;20490;-85
2022/08/29 09:27:30;;;;;;;11.23;7.53;;;21.50;1.00;;;;;;4999718;28;20498;-81
2022/08/29 09:30:05;;;;;;;11.00;7.30;;;21.60;1.00;;;;;;4997920;28;20478;-82
2022/08/29 09:32:37;;;;;;;9.80;6.50;;;21.80;1.00;;;;;;4995452;28;20941;-84
2022/08/29 09:35:23;;;;;;;10.47;6.67;;;21.60;1.00;;;;;;4994507;28;20998;-83
2022/08/29 09:37:59;;;;;;;10.20;6.57;;;21.40;1.00;;;;;;4997260;28;21461;-84
2022/08/29 09:40:43;;;;;;;9.73;5.77;;;21.30;1.00;;;;;;4989748;28;20621;-84
2022/08/29 09:43:18;;;;;;;8.80;5.90;;;21.50;1.00;;;;;;4996239;28;20531;-83
2022/08/29 09:46:08;;;;;;;8.87;6.00;;;21.80;1.00;;;;;;4990117;28;20547;-84
2022/08/29 09:48:36;;;;;;;8.13;6.40;;;21.80;1.00;;;;;;4991991;28;20541;-82
2022/08/29 09:51:19;;;;;;;11.63;6.67;;;21.60;1.00;;;;;;4993832;28;20455;-83
2022/08/29 09:53:46;;;;;;;10.33;6.17;;;21.70;1.00;;;;;;4991774;28;20463;-82
2022/08/29 09:56:18;;;;;;;9.40;6.60;;;21.90;1.00;;;;;;4995977;28;20489;-83
2022/08/29 09:58:45;;;;;;;8.03;6.13;;;21.90;1.00;;;;;;4993570;28;20531;-83
2022/08/29 10:01:18;;;;;;;10.50;6.30;;;21.70;1.00;;;;;;4994234;28;20464;-84
2022/08/29 10:03:57;;;;;;;10.80;6.00;;;21.50;1.00;;;;;;4990404;28;20458;-83
2022/08/29 10:06:27;;;;;;;10.33;6.60;;;21.40;1.00;;;;;;4991228;28;20503;-84
2022/08/29 10:09:24;;;;;;;10.60;7.00;;;21.50;1.00;;;;;;4987927;28;20453;-83
2022/08/29 10:11:59;;;;;;;14.00;6.10;;;21.50;1.00;;;;;;4948549;28;20997;-80
2022/08/29 10:14:33;;;;;;;9.47;6.23;;;21.50;1.00;;;;;;4954490;28;20466;-82
2022/08/29 10:19:46;;;;;;;10.57;6.57;;;21.50;1.00;;;;;;4951824;28;20460;-82
2022/08/29 10:22:26;;;;;;;9.93;5.77;;;21.80;1.00;;;;;;4952147;28;20469;-82
2022/08/29 10:25:02;;;;;;;11.93;6.27;;;22.00;1.00;;;;;;4948443;28;20463;-82
2022/08/29 10:27:37;;;;;;;8.77;6.90;;;22.20;1.00;;;;;;4951600;28;20594;-82
2022/08/29 10:30:08;;;;;;;7.60;5.73;;;22.40;1.00;;;;;;4953000;28;20451;-82
2022/08/29 10:33:08;;;;;;;11.63;6.20;;;22.30;1.00;;;;;;4957999;28;20486;-82
2022/08/29 10:35:39;;;;;;;10.70;6.43;;;22.00;1.00;;;;;;4951445;28;20508;-81
2022/08/29 10:38:16;;;;;;;8.33;6.07;;;21.60;1.00;;;;;;4956711;28;20536;-82
2022/08/29 10:40:47;;;;;;;11.03;6.80;;;21.50;1.00;;;;;;4957760;28;20544;-81
2022/08/29 10:43:31;;;;;;;11.30;6.47;;;21.40;1.00;;;;;;4957486;28;20476;-81
2022/08/29 10:46:14;;;;;;;8.33;6.50;;;21.30;1.00;;;;;;4955101;28;21031;-80
2022/08/29 10:48:49;;;;;;;11.47;6.57;;;21.30;1.00;;;;;;4951864;28;20571;-82
2022/08/29 10:51:22;;;;;;;9.33;6.83;;;21.20;1.00;;;;;;4954863;28;20512;-82
2022/08/29 10:53:57;;;;;;;11.13;8.07;;;21.20;1.00;;;;;;4957793;28;20461;-82
2022/08/29 10:56:30;;;;;;;10.10;7.17;;;21.30;1.00;;;;;;4954550;28;20417;-82
2022/08/29 10:59:06;;;;;;;7.83;6.20;;;21.30;1.00;;;;;;4953147;28;20463;-81
2022/08/29 11:01:38;;;;;;;10.03;7.17;;;21.40;1.00;;;;;;4955698;28;20460;-81
2022/08/29 11:04:24;;;;;;;10.70;6.67;;;21.60;1.00;;;;;;4953690;28;20463;-80
2022/08/29 11:06:59;;;;;;;9.53;6.97;;;22.00;1.00;;;;;;4952486;28;20417;-79
2022/08/29 11:09:33;;;;;;;12.43;7.00;;;22.40;1.00;;;;;;4950267;28;20456;-79
2022/08/29 11:12:07;;;;;;;14.00;6.47;;;22.60;1.00;;;;;;4990115;28;20515;-79
2022/08/29 11:14:54;;;;;;;9.30;6.80;;;22.70;1.00;;;;;;4983890;28;20491;-82
2022/08/29 11:17:32;;;;;;;11.80;6.27;;;22.90;1.00;;;;;;4996289;28;20478;-81
2022/08/29 11:20:31;;;;;;;11.20;7.30;;;22.90;1.00;;;;;;5004998;28;20504;-80
2022/08/29 11:23:05;;;;;;;8.60;6.53;;;22.70;1.00;;;;;;4983398;28;20499;-79
2022/08/29 11:25:35;;;;;;;8.87;6.27;;;23.00;1.00;;;;;;4994062;28;20518;-78
2022/08/29 11:28:09;;;;;;;8.40;5.60;;;24.60;1.00;;;;;;4994677;28;20530;-80
2022/08/29 11:30:46;;;;;;;7.83;6.10;;;27.30;1.00;;;;;;4995275;28;20513;-80
2022/08/29 11:33:34;;;;;;;8.10;5.83;;;29.80;1.00;;;;;;4994085;28;20518;-81
2022/08/29 11:36:20;;;;;;;9.90;5.93;;;31.20;1.00;;;;;;4992111;28;20463;-80
2022/08/29 11:39:14;;;;;;;11.40;5.87;;;31.90;1.00;;;;;;4995242;28;20489;-79
2022/08/29 11:41:55;;;;;;;8.47;5.33;;;31.30;1.00;;;;;;4989316;28;20465;-80
2022/08/29 11:44:28;;;;;;;10.07;5.70;;;30.70;1.00;;;;;;4991409;28;21191;-80
2022/08/29 11:46:55;;;;;;;8.60;5.40;;;31.50;1.00;;;;;;4989240;28;20552;-80
2022/08/29 11:49:39;;;;;;;8.80;5.40;;;32.60;1.00;;;;;;4983003;28;20509;-80
2022/08/29 11:52:26;;;;;;;10.10;5.53;;;33.10;1.00;;;;;;4987471;28;20493;-80
2022/08/29 11:55:21;;;;;;;8.00;5.00;;;32.20;1.00;;;;;;4992421;28;20439;-79
2022/08/29 11:57:56;;;;;;;9.33;5.53;;;31.90;1.00;;;;;;4972780;28;20432;-80
2022/08/29 12:00:37;;;;;;;9.57;5.73;;;32.70;1.00;;;;;;4989929;28;20461;-81
2022/08/29 12:03:05;;;;;;;9.10;4.97;;;32.30;1.00;;;;;;4990910;28;20467;-80
2022/08/29 12:05:56;;;;;;;9.80;5.87;;;32.10;1.00;;;;;;4996287;28;21007;-80
2022/08/29 12:08:39;;;;;;;9.10;5.20;;;32.80;1.00;;;;;;4978932;28;20474;-81
2022/08/29 12:11:06;;;;;;;11.40;5.00;;;33.80;1.00;;;;;;4980809;28;20477;-80
2022/08/29 12:14:00;;;;;;;8.70;4.97;;;33.40;1.00;;;;;;4985235;28;20447;-82
2022/08/29 12:16:45;;;;;;;8.10;4.53;;;32.40;1.00;;;;;;4990917;28;20526;-81
2022/08/29 12:19:35;;;;;;;11.23;5.10;;;31.20;1.00;;;;;;4985205;28;20473;-80
2022/08/29 12:22:04;;;;;;;10.70;4.73;;;30.10;1.00;;;;;;4965881;28;20442;-80
2022/08/29 12:24:45;;;;;;;9.80;4.80;;;28.90;1.00;;;;;;4980606;28;20485;-80
2022/08/29 12:27:58;;;;;;;10.40;5.43;;;28.10;1.00;;;;;;4982510;28;20461;-80
2022/08/29 12:30:38;;;;;;;9.63;5.37;;;27.40;1.00;;;;;;4985207;28;20453;-81
2022/08/29 12:33:19;;;;;;;7.63;5.37;;;26.70;1.00;;;;;;4970923;28;20468;-82
2022/08/29 12:36:08;;;;;;;10.33;5.30;;;26.30;1.00;;;;;;4985982;28;20928;-82
2022/08/29 12:38:49;;;;;;;10.23;5.07;;;25.90;1.00;;;;;;4988762;28;20447;-83
2022/08/29 12:41:41;;;;;;;8.07;4.87;;;25.80;1.00;;;;;;4982662;28;20553;-82
2022/08/29 12:44:15;;;;;;;7.83;4.93;;;25.50;1.00;;;;;;4997383;28;20498;-82
2022/08/29 12:46:49;;;;;;;8.87;4.80;;;25.10;1.00;;;;;;4987668;28;21212;-81
2022/08/29 12:49:32;;;;;;;8.70;4.73;;;24.90;1.00;;;;;;4993007;28;20924;-81
2022/08/29 12:52:01;;;;;;;10.17;5.60;;;24.60;1.00;;;;;;4990869;28;20467;-81
2022/08/29 12:54:35;;;;;;;9.00;5.17;;;24.40;1.00;;;;;;4992099;28;20455;-80
2022/08/29 12:57:03;;;;;;;10.87;7.57;;;24.20;1.00;;;;;;4996245;28;21599;-82
2022/08/29 12:59:30;;;;;;;9.70;5.13;;;24.20;1.00;;;;;;4991691;28;20471;-81
2022/08/29 13:01:59;;;;;;;9.43;6.10;;;24.20;1.00;;;;;;5000295;28;20934;-81
2022/08/29 13:04:32;;;;;;;8.87;5.53;;;24.30;1.00;;;;;;4993140;28;20481;-81
2022/08/29 13:07:02;;;;;;;9.33;5.23;;;24.40;1.00;;;;;;4993011;28;20546;-82
2022/08/29 13:09:35;;;;;;;8.53;5.40;;;24.90;1.00;;;;;;4996550;28;20463;-81
2022/08/29 13:12:13;;;;;;;8.40;5.30;;;25.90;1.00;;;;;;4994724;28;21991;-81
2022/08/29 13:15:04;;;;;;;12.60;7.00;;;26.60;1.00;;;;;;4991929;28;20570;-81
2022/08/29 13:17:34;;;;;;;10.90;5.60;;;27.10;1.00;;;;;;4989722;28;20502;-81
2022/08/29 13:20:41;;;;;;;11.13;5.73;;;27.10;1.00;;;;;;5003397;28;20997;-81
2022/08/29 13:23:15;;;;;;;10.43;5.90;;;26.50;1.00;;;;;;4999639;28;20462;-83